sensor_id;sensor_type;location;lat;lon;timestamp;P1;durP1;ratioP1;P2;durP2;ratioP2
29984;SDS011;17387;42.690;23.328;2023-07-20T00:00:58;7.75;;;3.70;;
29984;SDS011;17387;42.690;23.328;2023-07-20T00:03:23;13.53;;;5.10;;
29984;SDS011;17387;42.690;23.328;2023-07-20T00:05:50;5.00;;;3.22;;
29984;SDS011;17387;42.690;23.328;2023-07-20T00:08:16;7.88;;;3.25;;
29984;SDS011;17387;42.690;23.328;2023-07-20T00:10:42;8.48;;;2.92;;
29984;SDS011;17387;42.690;23.328;2023-07-20T00:13:07;6.63;;;2.50;;
29984;SDS011;17387;42.690;23.328;2023-07-20T00:15:33;7.22;;;2.80;;
29984;SDS011;17387;42.690;23.328;2023-07-20T00:17:58;10.88;;;2.83;;
29984;SDS011;17387;42.690;23.328;2023-07-20T00:20:24;6.47;;;2.80;;
29984;SDS011;17387;42.690;23.328;2023-07-20T00:22:49;11.40;;;3.83;;
29984;SDS011;17387;42.690;23.328;2023-07-20T00:25:16;12.07;;;3.50;;
29984;SDS011;17387;42.690;23.328;2023-07-20T00:27:41;7.97;;;2.88;;
29984;SDS011;17387;42.690;23.328;2023-07-20T00:30:06;9.07;;;2.97;;
29984;SDS011;17387;42.690;23.328;2023-07-20T00:32:32;14.52;;;2.90;;
29984;SDS011;17387;42.690;23.328;2023-07-20T00:34:57;8.23;;;2.70;;
29984;SDS011;17387;42.690;23.328;2023-07-20T00:37:22;7.15;;;3.08;;
29984;SDS011;17387;42.690;23.328;2023-07-20T00:39:51;9.23;;;3.33;;
29984;SDS011;17387;42.690;23.328;2023-07-20T00:42:16;9.63;;;3.08;;
29984;SDS011;17387;42.690;23.328;2023-07-20T00:44:41;9.07;;;2.35;;
29984;SDS011;17387;42.690;23.328;2023-07-20T00:47:06;10.93;;;2.80;;
29984;SDS011;17387;42.690;23.328;2023-07-20T00:49:32;11.80;;;3.05;;
29984;SDS011;17387;42.690;23.328;2023-07-20T00:51:58;9.70;;;3.03;;
29984;SDS011;17387;42.690;23.328;2023-07-20T00:54:24;8.38;;;3.05;;
29984;SDS011;17387;42.690;23.328;2023-07-20T00:56:50;21.30;;;3.38;;
29984;SDS011;17387;42.690;23.328;2023-07-20T00:59:15;9.90;;;3.07;;
29984;SDS011;17387;42.690;23.328;2023-07-20T01:01:41;9.05;;;3.42;;
29984;SDS011;17387;42.690;23.328;2023-07-20T01:04:06;9.68;;;3.33;;
29984;SDS011;17387;42.690;23.328;2023-07-20T01:06:36;7.95;;;3.05;;
29984;SDS011;17387;42.690;23.328;2023-07-20T01:09:08;7.03;;;3.00;;
29984;SDS011;17387;42.690;23.328;2023-07-20T01:11:51;5.40;;;2.42;;
29984;SDS011;17387;42.690;23.328;2023-07-20T01:14:18;12.35;;;3.03;;
29984;SDS011;17387;42.690;23.328;2023-07-20T01:16:43;6.72;;;2.95;;
29984;SDS011;17387;42.690;23.328;2023-07-20T01:19:09;6.72;;;3.05;;
29984;SDS011;17387;42.690;23.328;2023-07-20T01:21:37;10.30;;;3.03;;
29984;SDS011;17387;42.690;23.328;2023-07-20T01:24:12;7.10;;;2.60;;
29984;SDS011;17387;42.690;23.328;2023-07-20T01:26:54;8.90;;;2.90;;
29984;SDS011;17387;42.690;23.328;2023-07-20T01:31:52;8.13;;;2.78;;
29984;SDS011;17387;42.690;23.328;2023-07-20T01:34:19;9.88;;;3.22;;
29984;SDS011;17387;42.690;23.328;2023-07-20T01:36:45;6.15;;;2.65;;
29984;SDS011;17387;42.690;23.328;2023-07-20T01:39:11;8.85;;;2.72;;
29984;SDS011;17387;42.690;23.328;2023-07-20T01:41:36;10.73;;;3.17;;
29984;SDS011;17387;42.690;23.328;2023-07-20T01:44:03;11.90;;;3.25;;
29984;SDS011;17387;42.690;23.328;2023-07-20T01:46:28;7.22;;;3.10;;
29984;SDS011;17387;42.690;23.328;2023-07-20T01:48:54;8.30;;;3.13;;
29984;SDS011;17387;42.690;23.328;2023-07-20T01:51:19;7.60;;;2.80;;
29984;SDS011;17387;42.690;23.328;2023-07-20T01:53:44;8.88;;;3.15;;
29984;SDS011;17387;42.690;23.328;2023-07-20T01:56:10;12.05;;;3.17;;
29984;SDS011;17387;42.690;23.328;2023-07-20T01:58:37;11.07;;;3.05;;
29984;SDS011;17387;42.690;23.328;2023-07-20T02:01:02;7.53;;;2.90;;
29984;SDS011;17387;42.690;23.328;2023-07-20T02:03:27;8.77;;;2.83;;
29984;SDS011;17387;42.690;23.328;2023-07-20T02:05:53;9.40;;;3.17;;
29984;SDS011;17387;42.690;23.328;2023-07-20T02:08:18;7.45;;;2.67;;
29984;SDS011;17387;42.690;23.328;2023-07-20T02:10:47;7.80;;;2.78;;
29984;SDS011;17387;42.690;23.328;2023-07-20T02:13:12;8.25;;;2.78;;
29984;SDS011;17387;42.690;23.328;2023-07-20T02:15:38;10.13;;;3.17;;
29984;SDS011;17387;42.690;23.328;2023-07-20T02:18:06;7.17;;;2.80;;
29984;SDS011;17387;42.690;23.328;2023-07-20T02:20:31;10.45;;;3.03;;
29984;SDS011;17387;42.690;23.328;2023-07-20T02:22:56;8.57;;;2.70;;
29984;SDS011;17387;42.690;23.328;2023-07-20T02:25:22;10.57;;;2.80;;
29984;SDS011;17387;42.690;23.328;2023-07-20T02:27:47;12.82;;;3.17;;
29984;SDS011;17387;42.690;23.328;2023-07-20T02:30:12;7.97;;;3.15;;
29984;SDS011;17387;42.690;23.328;2023-07-20T02:32:38;6.40;;;2.72;;
29984;SDS011;17387;42.690;23.328;2023-07-20T02:35:04;7.10;;;2.70;;
29984;SDS011;17387;42.690;23.328;2023-07-20T02:37:29;7.68;;;2.88;;
29984;SDS011;17387;42.690;23.328;2023-07-20T02:39:54;8.30;;;2.57;;
29984;SDS011;17387;42.690;23.328;2023-07-20T02:42:20;14.65;;;3.10;;
29984;SDS011;17387;42.690;23.328;2023-07-20T02:44:47;8.20;;;2.80;;
29984;SDS011;17387;42.690;23.328;2023-07-20T02:47:13;8.10;;;2.80;;
29984;SDS011;17387;42.690;23.328;2023-07-20T02:49:38;8.77;;;3.13;;
29984;SDS011;17387;42.690;23.328;2023-07-20T02:52:03;6.87;;;3.27;;
29984;SDS011;17387;42.690;23.328;2023-07-20T02:54:29;11.48;;;3.17;;
29984;SDS011;17387;42.690;23.328;2023-07-20T02:56:55;6.95;;;2.85;;
29984;SDS011;17387;42.690;23.328;2023-07-20T02:59:20;5.82;;;2.70;;
29984;SDS011;17387;42.690;23.328;2023-07-20T03:01:45;7.13;;;3.50;;
29984;SDS011;17387;42.690;23.328;2023-07-20T03:04:11;8.68;;;3.28;;
29984;SDS011;17387;42.690;23.328;2023-07-20T03:06:36;8.85;;;3.40;;
29984;SDS011;17387;42.690;23.328;2023-07-20T03:09:02;9.23;;;3.08;;
29984;SDS011;17387;42.690;23.328;2023-07-20T03:11:27;10.93;;;3.47;;
29984;SDS011;17387;42.690;23.328;2023-07-20T03:13:52;9.05;;;3.00;;
29984;SDS011;17387;42.690;23.328;2023-07-20T03:16:18;9.75;;;3.42;;
29984;SDS011;17387;42.690;23.328;2023-07-20T03:18:44;8.88;;;3.35;;
29984;SDS011;17387;42.690;23.328;2023-07-20T03:21:09;9.27;;;3.10;;
29984;SDS011;17387;42.690;23.328;2023-07-20T03:23:38;9.57;;;3.17;;
29984;SDS011;17387;42.690;23.328;2023-07-20T03:26:03;10.18;;;3.70;;
29984;SDS011;17387;42.690;23.328;2023-07-20T03:28:28;8.70;;;3.40;;
29984;SDS011;17387;42.690;23.328;2023-07-20T03:30:54;6.13;;;2.92;;
29984;SDS011;17387;42.690;23.328;2023-07-20T03:33:21;12.27;;;3.22;;
29984;SDS011;17387;42.690;23.328;2023-07-20T03:35:46;9.20;;;3.13;;
29984;SDS011;17387;42.690;23.328;2023-07-20T03:38:11;13.00;;;3.92;;
29984;SDS011;17387;42.690;23.328;2023-07-20T03:40:37;9.97;;;3.53;;
29984;SDS011;17387;42.690;23.328;2023-07-20T03:43:02;11.37;;;3.53;;
29984;SDS011;17387;42.690;23.328;2023-07-20T03:45:28;17.58;;;3.88;;
29984;SDS011;17387;42.690;23.328;2023-07-20T03:47:53;15.27;;;3.65;;
29984;SDS011;17387;42.690;23.328;2023-07-20T03:50:18;11.43;;;3.90;;
29984;SDS011;17387;42.690;23.328;2023-07-20T03:52:44;13.70;;;3.97;;
29984;SDS011;17387;42.690;23.328;2023-07-20T03:55:09;18.55;;;4.13;;
29984;SDS011;17387;42.690;23.328;2023-07-20T03:57:34;15.05;;;4.25;;
29984;SDS011;17387;42.690;23.328;2023-07-20T03:59:59;14.18;;;3.55;;
29984;SDS011;17387;42.690;23.328;2023-07-20T04:02:25;10.77;;;4.07;;
29984;SDS011;17387;42.690;23.328;2023-07-20T04:04:50;11.00;;;4.22;;
29984;SDS011;17387;42.690;23.328;2023-07-20T04:07:16;9.45;;;4.10;;
29984;SDS011;17387;42.690;23.328;2023-07-20T04:09:41;10.20;;;4.03;;
29984;SDS011;17387;42.690;23.328;2023-07-20T04:12:06;13.38;;;4.40;;
29984;SDS011;17387;42.690;23.328;2023-07-20T04:14:32;12.80;;;4.28;;
29984;SDS011;17387;42.690;23.328;2023-07-20T04:16:57;8.23;;;4.30;;
29984;SDS011;17387;42.690;23.328;2023-07-20T04:19:22;10.90;;;4.87;;
29984;SDS011;17387;42.690;23.328;2023-07-20T04:21:47;13.95;;;4.53;;
29984;SDS011;17387;42.690;23.328;2023-07-20T04:24:13;14.87;;;4.63;;
29984;SDS011;17387;42.690;23.328;2023-07-20T04:26:38;11.17;;;4.37;;
29984;SDS011;17387;42.690;23.328;2023-07-20T04:29:03;9.43;;;4.22;;
29984;SDS011;17387;42.690;23.328;2023-07-20T04:31:29;13.38;;;4.70;;
29984;SDS011;17387;42.690;23.328;2023-07-20T04:33:54;11.90;;;4.00;;
29984;SDS011;17387;42.690;23.328;2023-07-20T04:36:20;17.33;;;4.68;;
29984;SDS011;17387;42.690;23.328;2023-07-20T04:38:45;11.77;;;5.25;;
29984;SDS011;17387;42.690;23.328;2023-07-20T04:41:11;14.43;;;5.30;;
29984;SDS011;17387;42.690;23.328;2023-07-20T04:43:43;13.68;;;4.80;;
29984;SDS011;17387;42.690;23.328;2023-07-20T04:46:08;13.73;;;5.03;;
29984;SDS011;17387;42.690;23.328;2023-07-20T04:48:34;15.80;;;4.80;;
29984;SDS011;17387;42.690;23.328;2023-07-20T04:50:59;13.00;;;5.80;;
29984;SDS011;17387;42.690;23.328;2023-07-20T04:53:24;14.10;;;6.22;;
29984;SDS011;17387;42.690;23.328;2023-07-20T04:55:50;8.77;;;5.13;;
29984;SDS011;17387;42.690;23.328;2023-07-20T04:58:16;11.75;;;4.78;;
29984;SDS011;17387;42.690;23.328;2023-07-20T05:00:43;17.45;;;7.85;;
29984;SDS011;17387;42.690;23.328;2023-07-20T05:03:08;15.57;;;6.22;;
29984;SDS011;17387;42.690;23.328;2023-07-20T05:05:34;11.65;;;4.95;;
29984;SDS011;17387;42.690;23.328;2023-07-20T05:07:59;18.33;;;5.17;;
29984;SDS011;17387;42.690;23.328;2023-07-20T05:10:24;12.00;;;4.47;;
29984;SDS011;17387;42.690;23.328;2023-07-20T05:12:49;14.95;;;6.03;;
29984;SDS011;17387;42.690;23.328;2023-07-20T05:15:15;11.20;;;5.13;;
29984;SDS011;17387;42.690;23.328;2023-07-20T05:17:40;12.20;;;5.97;;
29984;SDS011;17387;42.690;23.328;2023-07-20T05:20:06;15.00;;;6.38;;
29984;SDS011;17387;42.690;23.328;2023-07-20T05:22:31;12.85;;;5.68;;
29984;SDS011;17387;42.690;23.328;2023-07-20T05:24:56;13.95;;;4.78;;
29984;SDS011;17387;42.690;23.328;2023-07-20T05:27:21;9.18;;;3.90;;
29984;SDS011;17387;42.690;23.328;2023-07-20T05:29:47;10.07;;;4.15;;
29984;SDS011;17387;42.690;23.328;2023-07-20T05:32:12;12.70;;;4.03;;
29984;SDS011;17387;42.690;23.328;2023-07-20T05:34:38;13.65;;;4.47;;
29984;SDS011;17387;42.690;23.328;2023-07-20T05:37:03;12.38;;;4.55;;
29984;SDS011;17387;42.690;23.328;2023-07-20T05:39:28;12.38;;;5.35;;
29984;SDS011;17387;42.690;23.328;2023-07-20T05:41:54;7.50;;;3.97;;
29984;SDS011;17387;42.690;23.328;2023-07-20T05:44:19;12.95;;;4.20;;
29984;SDS011;17387;42.690;23.328;2023-07-20T05:46:44;13.07;;;3.87;;
29984;SDS011;17387;42.690;23.328;2023-07-20T05:49:09;12.57;;;4.40;;
29984;SDS011;17387;42.690;23.328;2023-07-20T05:51:35;11.40;;;3.78;;
29984;SDS011;17387;42.690;23.328;2023-07-20T05:54:00;12.50;;;4.40;;
29984;SDS011;17387;42.690;23.328;2023-07-20T05:56:25;11.47;;;4.20;;
29984;SDS011;17387;42.690;23.328;2023-07-20T05:58:51;13.57;;;5.47;;
29984;SDS011;17387;42.690;23.328;2023-07-20T06:01:16;10.73;;;4.72;;
29984;SDS011;17387;42.690;23.328;2023-07-20T06:03:43;10.55;;;4.97;;
29984;SDS011;17387;42.690;23.328;2023-07-20T06:06:09;10.90;;;4.50;;
29984;SDS011;17387;42.690;23.328;2023-07-20T06:08:36;12.82;;;5.40;;
29984;SDS011;17387;42.690;23.328;2023-07-20T06:11:02;16.85;;;5.35;;
29984;SDS011;17387;42.690;23.328;2023-07-20T06:13:27;16.93;;;5.33;;
29984;SDS011;17387;42.690;23.328;2023-07-20T06:15:52;15.20;;;5.05;;
29984;SDS011;17387;42.690;23.328;2023-07-20T06:18:18;17.50;;;5.43;;
29984;SDS011;17387;42.690;23.328;2023-07-20T06:20:48;13.90;;;5.70;;
29984;SDS011;17387;42.690;23.328;2023-07-20T06:23:13;14.52;;;5.50;;
29984;SDS011;17387;42.690;23.328;2023-07-20T06:25:41;15.13;;;5.03;;
29984;SDS011;17387;42.690;23.328;2023-07-20T06:28:06;12.63;;;4.95;;
29984;SDS011;17387;42.690;23.328;2023-07-20T06:30:33;15.55;;;4.80;;
29984;SDS011;17387;42.690;23.328;2023-07-20T06:32:58;15.52;;;5.28;;
29984;SDS011;17387;42.690;23.328;2023-07-20T06:35:25;14.15;;;4.90;;
29984;SDS011;17387;42.690;23.328;2023-07-20T06:37:50;15.32;;;5.13;;
29984;SDS011;17387;42.690;23.328;2023-07-20T06:40:15;16.27;;;5.80;;
29984;SDS011;17387;42.690;23.328;2023-07-20T06:42:40;15.23;;;6.10;;
29984;SDS011;17387;42.690;23.328;2023-07-20T06:45:06;13.13;;;6.00;;
29984;SDS011;17387;42.690;23.328;2023-07-20T06:47:31;16.30;;;5.55;;
29984;SDS011;17387;42.690;23.328;2023-07-20T06:49:56;16.55;;;5.88;;
29984;SDS011;17387;42.690;23.328;2023-07-20T06:52:22;18.55;;;6.60;;
29984;SDS011;17387;42.690;23.328;2023-07-20T06:54:47;21.20;;;6.47;;
29984;SDS011;17387;42.690;23.328;2023-07-20T06:57:12;18.43;;;7.10;;
29984;SDS011;17387;42.690;23.328;2023-07-20T06:59:37;10.20;;;5.77;;
29984;SDS011;17387;42.690;23.328;2023-07-20T07:02:03;11.48;;;5.50;;
29984;SDS011;17387;42.690;23.328;2023-07-20T07:04:28;19.20;;;8.68;;
29984;SDS011;17387;42.690;23.328;2023-07-20T07:06:54;18.27;;;5.78;;
29984;SDS011;17387;42.690;23.328;2023-07-20T07:09:19;12.63;;;5.43;;
29984;SDS011;17387;42.690;23.328;2023-07-20T07:11:45;10.77;;;5.32;;
29984;SDS011;17387;42.690;23.328;2023-07-20T07:14:11;16.20;;;5.38;;
29984;SDS011;17387;42.690;23.328;2023-07-20T07:16:36;18.27;;;5.43;;
29984;SDS011;17387;42.690;23.328;2023-07-20T07:19:02;15.90;;;5.83;;
29984;SDS011;17387;42.690;23.328;2023-07-20T07:21:28;13.75;;;4.85;;
29984;SDS011;17387;42.690;23.328;2023-07-20T07:23:57;15.50;;;5.38;;
29984;SDS011;17387;42.690;23.328;2023-07-20T07:26:22;13.13;;;5.05;;
29984;SDS011;17387;42.690;23.328;2023-07-20T07:28:48;14.57;;;5.65;;
29984;SDS011;17387;42.690;23.328;2023-07-20T07:31:13;14.82;;;5.50;;
29984;SDS011;17387;42.690;23.328;2023-07-20T07:33:39;11.85;;;4.78;;
29984;SDS011;17387;42.690;23.328;2023-07-20T07:36:05;9.50;;;4.90;;
29984;SDS011;17387;42.690;23.328;2023-07-20T07:38:30;17.42;;;5.25;;
29984;SDS011;17387;42.690;23.328;2023-07-20T07:40:55;16.15;;;5.45;;
29984;SDS011;17387;42.690;23.328;2023-07-20T07:43:20;13.13;;;4.97;;
29984;SDS011;17387;42.690;23.328;2023-07-20T07:45:46;12.52;;;5.45;;
29984;SDS011;17387;42.690;23.328;2023-07-20T07:48:11;16.90;;;5.22;;
29984;SDS011;17387;42.690;23.328;2023-07-20T07:50:37;15.18;;;6.35;;
29984;SDS011;17387;42.690;23.328;2023-07-20T07:53:03;18.30;;;8.18;;
29984;SDS011;17387;42.690;23.328;2023-07-20T07:55:28;10.07;;;4.77;;
29984;SDS011;17387;42.690;23.328;2023-07-20T07:57:53;15.65;;;5.68;;
29984;SDS011;17387;42.690;23.328;2023-07-20T08:00:19;11.43;;;4.72;;
29984;SDS011;17387;42.690;23.328;2023-07-20T08:02:45;13.45;;;4.95;;
29984;SDS011;17387;42.690;23.328;2023-07-20T08:05:11;10.63;;;4.53;;
29984;SDS011;17387;42.690;23.328;2023-07-20T08:07:37;11.52;;;5.25;;
29984;SDS011;17387;42.690;23.328;2023-07-20T08:10:02;14.38;;;5.45;;
29984;SDS011;17387;42.690;23.328;2023-07-20T08:12:28;9.27;;;4.40;;
29984;SDS011;17387;42.690;23.328;2023-07-20T08:14:53;11.38;;;4.70;;
29984;SDS011;17387;42.690;23.328;2023-07-20T08:17:18;13.83;;;5.10;;
29984;SDS011;17387;42.690;23.328;2023-07-20T08:19:43;11.07;;;4.70;;
29984;SDS011;17387;42.690;23.328;2023-07-20T08:22:09;15.15;;;4.18;;
29984;SDS011;17387;42.690;23.328;2023-07-20T08:24:34;14.30;;;4.55;;
29984;SDS011;17387;42.690;23.328;2023-07-20T08:26:59;12.75;;;4.22;;
29984;SDS011;17387;42.690;23.328;2023-07-20T08:29:25;10.52;;;3.53;;
29984;SDS011;17387;42.690;23.328;2023-07-20T08:31:50;11.52;;;3.63;;
29984;SDS011;17387;42.690;23.328;2023-07-20T08:34:16;12.27;;;3.47;;
29984;SDS011;17387;42.690;23.328;2023-07-20T08:36:41;9.37;;;3.47;;
29984;SDS011;17387;42.690;23.328;2023-07-20T08:39:06;11.07;;;3.43;;
29984;SDS011;17387;42.690;23.328;2023-07-20T08:41:33;16.48;;;3.60;;
29984;SDS011;17387;42.690;23.328;2023-07-20T08:43:59;8.73;;;3.35;;
29984;SDS011;17387;42.690;23.328;2023-07-20T08:46:24;9.63;;;3.35;;
29984;SDS011;17387;42.690;23.328;2023-07-20T08:48:51;12.35;;;3.72;;
29984;SDS011;17387;42.690;23.328;2023-07-20T08:51:17;11.55;;;3.50;;
29984;SDS011;17387;42.690;23.328;2023-07-20T08:53:43;12.75;;;3.45;;
29984;SDS011;17387;42.690;23.328;2023-07-20T08:56:15;15.52;;;3.58;;
29984;SDS011;17387;42.690;23.328;2023-07-20T08:58:41;11.90;;;3.40;;
29984;SDS011;17387;42.690;23.328;2023-07-20T09:01:08;11.90;;;3.28;;
29984;SDS011;17387;42.690;23.328;2023-07-20T09:03:35;11.55;;;3.28;;
29984;SDS011;17387;42.690;23.328;2023-07-20T09:06:04;11.77;;;3.17;;
29984;SDS011;17387;42.690;23.328;2023-07-20T09:08:29;11.60;;;3.25;;
29984;SDS011;17387;42.690;23.328;2023-07-20T09:10:55;11.45;;;3.15;;
29984;SDS011;17387;42.690;23.328;2023-07-20T09:13:20;10.30;;;3.40;;
29984;SDS011;17387;42.690;23.328;2023-07-20T09:15:46;11.17;;;3.63;;
29984;SDS011;17387;42.690;23.328;2023-07-20T09:18:11;8.95;;;3.53;;
29984;SDS011;17387;42.690;23.328;2023-07-20T09:20:37;9.50;;;3.35;;
29984;SDS011;17387;42.690;23.328;2023-07-20T09:23:05;7.05;;;2.72;;
29984;SDS011;17387;42.690;23.328;2023-07-20T09:25:31;14.50;;;3.55;;
29984;SDS011;17387;42.690;23.328;2023-07-20T09:27:56;9.50;;;3.50;;
29984;SDS011;17387;42.690;23.328;2023-07-20T09:30:24;8.77;;;3.50;;
29984;SDS011;17387;42.690;23.328;2023-07-20T09:32:50;10.48;;;3.40;;
29984;SDS011;17387;42.690;23.328;2023-07-20T09:35:19;14.63;;;3.30;;
29984;SDS011;17387;42.690;23.328;2023-07-20T09:37:49;12.45;;;2.88;;
29984;SDS011;17387;42.690;23.328;2023-07-20T09:40:17;7.45;;;2.50;;
29984;SDS011;17387;42.690;23.328;2023-07-20T09:42:42;12.45;;;3.45;;
29984;SDS011;17387;42.690;23.328;2023-07-20T09:45:08;8.90;;;3.28;;
29984;SDS011;17387;42.690;23.328;2023-07-20T09:47:34;10.77;;;3.15;;
29984;SDS011;17387;42.690;23.328;2023-07-20T09:50:00;11.35;;;2.95;;
29984;SDS011;17387;42.690;23.328;2023-07-20T09:52:26;11.40;;;2.80;;
29984;SDS011;17387;42.690;23.328;2023-07-20T09:54:51;13.00;;;4.00;;
29984;SDS011;17387;42.690;23.328;2023-07-20T09:57:16;12.02;;;3.40;;
29984;SDS011;17387;42.690;23.328;2023-07-20T09:59:42;8.45;;;2.80;;
29984;SDS011;17387;42.690;23.328;2023-07-20T10:02:11;9.55;;;2.83;;
29984;SDS011;17387;42.690;23.328;2023-07-20T10:04:41;12.15;;;3.20;;
29984;SDS011;17387;42.690;23.328;2023-07-20T10:07:07;10.40;;;3.13;;
29984;SDS011;17387;42.690;23.328;2023-07-20T10:09:35;11.18;;;3.30;;
29984;SDS011;17387;42.690;23.328;2023-07-20T10:12:02;20.58;;;3.65;;
29984;SDS011;17387;42.690;23.328;2023-07-20T10:14:28;14.68;;;3.75;;
29984;SDS011;17387;42.690;23.328;2023-07-20T10:16:58;10.63;;;2.85;;
29984;SDS011;17387;42.690;23.328;2023-07-20T10:21:57;9.48;;;2.72;;
29984;SDS011;17387;42.690;23.328;2023-07-20T10:24:25;9.70;;;3.00;;
29984;SDS011;17387;42.690;23.328;2023-07-20T10:26:51;7.40;;;3.10;;
29984;SDS011;17387;42.690;23.328;2023-07-20T10:29:16;11.50;;;3.10;;
29984;SDS011;17387;42.690;23.328;2023-07-20T10:31:42;8.07;;;2.67;;
29984;SDS011;17387;42.690;23.328;2023-07-20T10:34:07;6.78;;;2.53;;
29984;SDS011;17387;42.690;23.328;2023-07-20T10:36:33;7.97;;;2.50;;
29984;SDS011;17387;42.690;23.328;2023-07-20T10:39:08;7.18;;;2.53;;
29984;SDS011;17387;42.690;23.328;2023-07-20T10:41:46;10.95;;;3.10;;
29984;SDS011;17387;42.690;23.328;2023-07-20T10:44:12;7.10;;;2.57;;
29984;SDS011;17387;42.690;23.328;2023-07-20T10:49:04;10.33;;;4.43;;
29984;SDS011;17387;42.690;23.328;2023-07-20T10:51:30;6.95;;;2.85;;
29984;SDS011;17387;42.690;23.328;2023-07-20T10:53:56;8.32;;;2.53;;
29984;SDS011;17387;42.690;23.328;2023-07-20T10:56:23;16.15;;;3.55;;
29984;SDS011;17387;42.690;23.328;2023-07-20T10:58:54;9.80;;;3.22;;
29984;SDS011;17387;42.690;23.328;2023-07-20T11:01:20;7.65;;;2.38;;
29984;SDS011;17387;42.690;23.328;2023-07-20T11:03:48;10.20;;;3.47;;
29984;SDS011;17387;42.690;23.328;2023-07-20T11:11:40;10.57;;;3.90;;
29984;SDS011;17387;42.690;23.328;2023-07-20T11:14:06;9.35;;;3.05;;
29984;SDS011;17387;42.690;23.328;2023-07-20T11:19:01;7.85;;;3.05;;
29984;SDS011;17387;42.690;23.328;2023-07-20T11:21:27;7.22;;;2.90;;
29984;SDS011;17387;42.690;23.328;2023-07-20T11:23:53;11.13;;;3.83;;
29984;SDS011;17387;42.690;23.328;2023-07-20T11:26:18;9.98;;;3.00;;
29984;SDS011;17387;42.690;23.328;2023-07-20T11:28:48;10.85;;;3.63;;
29984;SDS011;17387;42.690;23.328;2023-07-20T11:31:14;8.50;;;3.45;;
29984;SDS011;17387;42.690;23.328;2023-07-20T11:33:41;8.07;;;3.25;;
29984;SDS011;17387;42.690;23.328;2023-07-20T11:36:07;8.65;;;3.80;;
29984;SDS011;17387;42.690;23.328;2023-07-20T11:38:33;13.63;;;3.40;;
29984;SDS011;17387;42.690;23.328;2023-07-20T11:40:58;13.43;;;3.50;;
29984;SDS011;17387;42.690;23.328;2023-07-20T11:43:23;11.00;;;3.60;;
29984;SDS011;17387;42.690;23.328;2023-07-20T11:45:49;11.57;;;4.07;;
29984;SDS011;17387;42.690;23.328;2023-07-20T11:48:17;9.45;;;4.10;;
29984;SDS011;17387;42.690;23.328;2023-07-20T11:50:42;11.25;;;3.83;;
29984;SDS011;17387;42.690;23.328;2023-07-20T11:53:07;8.03;;;4.07;;
29984;SDS011;17387;42.690;23.328;2023-07-20T11:55:33;8.60;;;3.78;;
29984;SDS011;17387;42.690;23.328;2023-07-20T11:58:04;8.63;;;3.85;;
29984;SDS011;17387;42.690;23.328;2023-07-20T12:00:33;8.45;;;4.00;;
29984;SDS011;17387;42.690;23.328;2023-07-20T12:03:04;11.00;;;5.47;;
29984;SDS011;17387;42.690;23.328;2023-07-20T12:05:34;9.98;;;3.90;;
29984;SDS011;17387;42.690;23.328;2023-07-20T12:07:59;7.78;;;4.18;;
29984;SDS011;17387;42.690;23.328;2023-07-20T12:10:26;7.95;;;4.10;;
29984;SDS011;17387;42.690;23.328;2023-07-20T12:12:51;8.18;;;3.92;;
29984;SDS011;17387;42.690;23.328;2023-07-20T12:15:19;8.63;;;3.78;;
29984;SDS011;17387;42.690;23.328;2023-07-20T12:17:45;7.93;;;3.72;;
29984;SDS011;17387;42.690;23.328;2023-07-20T12:20:10;7.43;;;3.65;;
29984;SDS011;17387;42.690;23.328;2023-07-20T12:22:39;9.75;;;4.07;;
29984;SDS011;17387;42.690;23.328;2023-07-20T12:25:06;6.75;;;3.35;;
29984;SDS011;17387;42.690;23.328;2023-07-20T12:27:32;7.55;;;3.58;;
29984;SDS011;17387;42.690;23.328;2023-07-20T12:29:57;10.27;;;3.50;;
29984;SDS011;17387;42.690;23.328;2023-07-20T12:32:22;10.48;;;3.20;;
29984;SDS011;17387;42.690;23.328;2023-07-20T12:34:48;7.67;;;3.20;;
29984;SDS011;17387;42.690;23.328;2023-07-20T12:37:13;7.17;;;3.30;;
29984;SDS011;17387;42.690;23.328;2023-07-20T12:39:38;10.17;;;3.93;;
29984;SDS011;17387;42.690;23.328;2023-07-20T12:42:04;8.20;;;3.38;;
29984;SDS011;17387;42.690;23.328;2023-07-20T12:44:29;10.73;;;3.38;;
29984;SDS011;17387;42.690;23.328;2023-07-20T12:46:55;13.45;;;3.55;;
29984;SDS011;17387;42.690;23.328;2023-07-20T12:49:21;8.60;;;3.30;;
29984;SDS011;17387;42.690;23.328;2023-07-20T12:51:46;10.93;;;3.23;;
29984;SDS011;17387;42.690;23.328;2023-07-20T12:54:12;9.00;;;3.47;;
29984;SDS011;17387;42.690;23.328;2023-07-20T12:56:37;8.13;;;3.00;;
29984;SDS011;17387;42.690;23.328;2023-07-20T12:59:02;4.87;;;2.67;;
29984;SDS011;17387;42.690;23.328;2023-07-20T13:01:28;8.52;;;3.60;;
29984;SDS011;17387;42.690;23.328;2023-07-20T13:03:53;7.68;;;3.10;;
29984;SDS011;17387;42.690;23.328;2023-07-20T13:06:19;6.20;;;3.00;;
29984;SDS011;17387;42.690;23.328;2023-07-20T13:08:45;6.65;;;3.30;;
29984;SDS011;17387;42.690;23.328;2023-07-20T13:11:10;9.60;;;3.30;;
29984;SDS011;17387;42.690;23.328;2023-07-20T13:13:35;10.60;;;3.53;;
29984;SDS011;17387;42.690;23.328;2023-07-20T13:16:00;7.47;;;2.83;;
29984;SDS011;17387;42.690;23.328;2023-07-20T13:18:26;10.82;;;3.20;;
29984;SDS011;17387;42.690;23.328;2023-07-20T13:20:51;9.97;;;3.33;;
29984;SDS011;17387;42.690;23.328;2023-07-20T13:23:19;7.93;;;3.30;;
29984;SDS011;17387;42.690;23.328;2023-07-20T13:25:45;11.95;;;3.30;;
29984;SDS011;17387;42.690;23.328;2023-07-20T13:28:10;8.40;;;3.03;;
29984;SDS011;17387;42.690;23.328;2023-07-20T13:30:35;9.73;;;3.17;;
29984;SDS011;17387;42.690;23.328;2023-07-20T13:33:00;6.93;;;2.90;;
29984;SDS011;17387;42.690;23.328;2023-07-20T13:35:26;9.00;;;2.97;;
29984;SDS011;17387;42.690;23.328;2023-07-20T13:37:51;7.10;;;2.83;;
29984;SDS011;17387;42.690;23.328;2023-07-20T13:40:16;11.57;;;3.43;;
29984;SDS011;17387;42.690;23.328;2023-07-20T13:42:43;7.80;;;3.10;;
29984;SDS011;17387;42.690;23.328;2023-07-20T13:45:09;12.45;;;3.00;;
29984;SDS011;17387;42.690;23.328;2023-07-20T13:47:34;9.48;;;3.08;;
29984;SDS011;17387;42.690;23.328;2023-07-20T13:49:59;11.20;;;2.58;;
29984;SDS011;17387;42.690;23.328;2023-07-20T13:52:26;13.30;;;3.50;;
29984;SDS011;17387;42.690;23.328;2023-07-20T13:54:51;9.00;;;3.03;;
29984;SDS011;17387;42.690;23.328;2023-07-20T13:57:16;8.67;;;3.20;;
29984;SDS011;17387;42.690;23.328;2023-07-20T13:59:41;5.47;;;2.70;;
29984;SDS011;17387;42.690;23.328;2023-07-20T14:02:07;7.75;;;2.63;;
29984;SDS011;17387;42.690;23.328;2023-07-20T14:04:32;10.90;;;2.77;;
29984;SDS011;17387;42.690;23.328;2023-07-20T14:06:57;9.10;;;2.63;;
29984;SDS011;17387;42.690;23.328;2023-07-20T14:09:23;6.63;;;2.70;;
29984;SDS011;17387;42.690;23.328;2023-07-20T14:11:55;13.38;;;2.90;;
29984;SDS011;17387;42.690;23.328;2023-07-20T14:14:20;9.20;;;2.70;;
29984;SDS011;17387;42.690;23.328;2023-07-20T14:16:46;9.63;;;2.90;;
29984;SDS011;17387;42.690;23.328;2023-07-20T14:19:11;9.43;;;3.70;;
29984;SDS011;17387;42.690;23.328;2023-07-20T14:21:37;8.77;;;2.80;;
29984;SDS011;17387;42.690;23.328;2023-07-20T14:24:02;10.27;;;3.53;;
29984;SDS011;17387;42.690;23.328;2023-07-20T14:26:28;10.30;;;3.00;;
29984;SDS011;17387;42.690;23.328;2023-07-20T14:28:53;8.85;;;3.25;;
29984;SDS011;17387;42.690;23.328;2023-07-20T14:31:18;9.67;;;2.77;;
29984;SDS011;17387;42.690;23.328;2023-07-20T14:33:44;10.55;;;3.08;;
29984;SDS011;17387;42.690;23.328;2023-07-20T14:36:10;6.83;;;3.10;;